createdAt,value
2023-05-10T00:00:27.071Z,100.00
2023-05-10T00:02:53.805Z,100.00
2023-05-10T00:05:20.330Z,100.00
2023-05-10T00:07:46.821Z,100.00
2023-05-10T00:10:13.699Z,100.00
2023-05-10T00:12:40.239Z,100.00
2023-05-10T00:15:07.403Z,100.00
2023-05-10T00:17:33.897Z,100.00
2023-05-10T00:20:00.435Z,100.00
2023-05-10T00:22:26.912Z,100.00
2023-05-10T00:24:53.416Z,100.00
2023-05-10T00:27:19.953Z,100.00
2023-05-10T00:29:46.412Z,100.00
2023-05-10T00:32:14.847Z,100.00
2023-05-10T00:34:41.597Z,100.00
2023-05-10T00:37:08.074Z,100.00
2023-05-10T00:39:34.546Z,100.00
2023-05-10T00:42:01.206Z,100.00
2023-05-10T00:44:28.503Z,100.00
2023-05-10T00:46:55.189Z,100.00
2023-05-10T00:49:22.155Z,100.00
2023-05-10T00:51:49.865Z,100.00
2023-05-10T00:54:17.294Z,100.00
2023-05-10T00:56:49.418Z,100.00
2023-05-10T00:59:17.645Z,100.00
2023-05-10T01:01:45.813Z,100.00
2023-05-10T01:04:16.167Z,100.00
2023-05-10T01:06:43.639Z,100.00
2023-05-10T01:09:10.984Z,100.00
2023-05-10T01:11:40.288Z,100.00
2023-05-10T01:14:07.238Z,100.00
2023-05-10T01:16:38.932Z,100.00
2023-05-10T01:19:18.176Z,100.00
2023-05-10T01:21:54.100Z,100.00
2023-05-10T01:24:43.840Z,100.00
2023-05-10T01:27:32.156Z,100.00
2023-05-10T01:30:21.747Z,100.00
2023-05-10T01:33:18.227Z,100.00
2023-05-10T01:35:56.417Z,100.00
2023-05-10T01:38:23.026Z,100.00
2023-05-10T01:41:08.320Z,100.00
2023-05-10T01:43:47.751Z,100.00
2023-05-10T01:46:18.724Z,100.00
2023-05-10T01:48:49.508Z,100.00
2023-05-10T01:51:24.687Z,100.00
2023-05-10T01:53:55.061Z,100.00
2023-05-10T01:56:26.826Z,100.00
2023-05-10T01:58:54.489Z,100.00
2023-05-10T02:01:22.865Z,100.00
2023-05-10T02:03:52.771Z,100.00
2023-05-10T02:06:21.747Z,100.00
2023-05-10T02:08:50.326Z,100.00
2023-05-10T02:11:19.482Z,100.00
2023-05-10T02:13:48.253Z,100.00
2023-05-10T02:16:17.197Z,100.00
2023-05-10T02:18:44.082Z,100.00
2023-05-10T02:21:11.767Z,100.00
2023-05-10T02:23:40.516Z,100.00
2023-05-10T02:26:08.905Z,100.00
2023-05-10T02:28:38.579Z,100.00
2023-05-10T02:31:06.987Z,100.00
2023-05-10T02:33:34.782Z,100.00
2023-05-10T02:36:03.673Z,100.00
2023-05-10T02:38:32.278Z,100.00
2023-05-10T02:41:00.308Z,100.00
2023-05-10T02:43:28.935Z,100.00
2023-05-10T02:45:56.522Z,100.00
2023-05-10T02:48:23.110Z,100.00
2023-05-10T02:50:52.502Z,100.00
2023-05-10T02:53:32.920Z,100.00
2023-05-10T02:56:02.694Z,100.00
2023-05-10T02:58:29.159Z,100.00
2023-05-10T03:00:55.660Z,100.00
2023-05-10T03:03:22.149Z,100.00
2023-05-10T03:05:50.443Z,100.00
2023-05-10T03:08:17.225Z,100.00
2023-05-10T03:11:23.602Z,100.00
2023-05-10T03:14:11.439Z,100.00
2023-05-10T03:16:47.779Z,100.00
2023-05-10T03:19:33.394Z,100.00
2023-05-10T03:22:03.673Z,100.00
2023-05-10T03:24:36.295Z,100.00
2023-05-10T03:27:05.208Z,100.00
2023-05-10T03:29:32.838Z,100.00
2023-05-10T03:32:00.825Z,100.00
2023-05-10T03:34:31.170Z,100.00
2023-05-10T03:36:58.064Z,100.00
2023-05-10T03:39:25.930Z,100.00
2023-05-10T03:41:56.130Z,100.00
2023-05-10T03:44:22.640Z,100.00
2023-05-10T03:46:49.791Z,100.00
2023-05-10T03:49:16.603Z,100.00
2023-05-10T03:51:43.147Z,100.00
2023-05-10T03:54:09.635Z,100.00
2023-05-10T03:56:36.153Z,100.00
2023-05-10T03:59:02.748Z,100.00
2023-05-10T04:01:31.005Z,100.00
2023-05-10T04:03:57.499Z,100.00
2023-05-10T04:06:24.093Z,100.00
2023-05-10T04:08:51.181Z,100.00
2023-05-10T04:11:18.038Z,100.00
2023-05-10T04:13:44.572Z,100.00
2023-05-10T04:16:11.050Z,100.00
2023-05-10T04:18:37.527Z,100.00
2023-05-10T04:21:04.142Z,100.00
2023-05-10T04:23:30.598Z,100.00
2023-05-10T04:26:01.580Z,100.00
2023-05-10T04:28:28.202Z,100.00
2023-05-10T04:31:01.046Z,100.00
2023-05-10T04:33:27.508Z,100.00
2023-05-10T04:35:53.964Z,100.00
2023-05-10T04:38:20.392Z,100.00
2023-05-10T04:40:46.904Z,100.00
2023-05-10T04:43:13.424Z,100.00
2023-05-10T04:45:39.890Z,100.00
2023-05-10T04:48:06.619Z,100.00
2023-05-10T04:50:33.078Z,100.00
2023-05-10T04:52:59.628Z,100.00
2023-05-10T04:55:27.442Z,100.00
2023-05-10T04:57:56.144Z,100.00
2023-05-10T05:00:22.572Z,100.00
2023-05-10T05:02:49.210Z,100.00
2023-05-10T05:05:15.942Z,100.00
2023-05-10T05:07:42.390Z,100.00
2023-05-10T05:10:09.601Z,100.00
2023-05-10T05:12:36.343Z,100.00
2023-05-10T05:15:03.598Z,100.00
2023-05-10T05:17:31.531Z,100.00
2023-05-10T05:19:58.168Z,100.00
2023-05-10T05:22:28.950Z,100.00
2023-05-10T05:24:56.592Z,100.00
2023-05-10T05:27:25.137Z,100.00
2023-05-10T05:29:53.088Z,100.00
2023-05-10T05:32:19.599Z,100.00
2023-05-10T05:34:46.740Z,100.00
2023-05-10T05:37:16.898Z,100.00
2023-05-10T05:39:44.209Z,100.00
2023-05-10T05:42:11.549Z,100.00
2023-05-10T05:44:38.312Z,100.00
2023-05-10T05:47:04.974Z,100.00
2023-05-10T05:49:31.562Z,100.00
2023-05-10T05:52:04.497Z,100.00
2023-05-10T05:54:32.428Z,100.00
2023-05-10T05:57:01.162Z,100.00
2023-05-10T05:59:28.357Z,100.00
2023-05-10T06:01:55.059Z,100.00
2023-05-10T06:04:21.777Z,100.00
2023-05-10T06:06:48.301Z,100.00
2023-05-10T06:09:14.783Z,100.00
2023-05-10T06:11:41.457Z,100.00
2023-05-10T06:14:08.804Z,100.00
2023-05-10T06:16:35.798Z,100.00
2023-05-10T06:19:03.253Z,100.00
2023-05-10T06:21:29.865Z,100.00
2023-05-10T06:23:56.336Z,100.00
2023-05-10T06:26:22.828Z,100.00
2023-05-10T06:28:49.280Z,100.00
2023-05-10T06:31:16.100Z,100.00
2023-05-10T06:33:42.623Z,100.00
2023-05-10T06:36:09.180Z,100.00
2023-05-10T06:38:35.604Z,100.00
2023-05-10T06:41:02.096Z,100.00
2023-05-10T06:43:29.762Z,100.00
2023-05-10T06:45:56.790Z,100.00
2023-05-10T06:48:23.319Z,100.00
2023-05-10T06:50:50.251Z,100.00
2023-05-10T06:53:16.777Z,100.00
2023-05-10T06:55:43.187Z,100.00
2023-05-10T06:58:09.650Z,100.00
2023-05-10T07:00:38.014Z,100.00
2023-05-10T07:03:04.542Z,100.00
2023-05-10T07:05:31.190Z,100.00
2023-05-10T07:07:58.396Z,100.00
2023-05-10T07:10:24.874Z,100.00
2023-05-10T07:12:51.362Z,100.00
2023-05-10T07:15:18.237Z,100.00
2023-05-10T07:17:46.088Z,100.00
2023-05-10T07:20:13.156Z,100.00
2023-05-10T07:22:39.603Z,100.00
2023-05-10T07:25:06.756Z,100.00
2023-05-10T07:27:33.524Z,100.00
2023-05-10T07:30:00.099Z,100.00
2023-05-10T07:32:26.879Z,100.00
2023-05-10T07:34:53.532Z,100.00
2023-05-10T07:37:19.949Z,100.00
2023-05-10T07:39:46.419Z,97.42
2023-05-10T07:42:12.865Z,97.80
2023-05-10T07:44:39.332Z,95.99
2023-05-10T07:47:05.760Z,98.80
2023-05-10T07:49:32.208Z,98.63
2023-05-10T07:51:58.626Z,100.00
2023-05-10T07:54:25.037Z,97.17
2023-05-10T07:56:51.934Z,96.22
2023-05-10T07:59:18.829Z,97.62
2023-05-10T08:01:45.782Z,97.02
2023-05-10T08:04:12.717Z,94.16
2023-05-10T08:06:39.861Z,94.38
2023-05-10T08:09:06.304Z,95.80
2023-05-10T08:11:33.725Z,92.12
2023-05-10T08:14:01.493Z,92.98
2023-05-10T08:16:28.436Z,93.54
2023-05-10T08:18:56.225Z,93.28
2023-05-10T08:21:22.817Z,94.80
2023-05-10T08:23:49.928Z,95.93
2023-05-10T08:26:16.416Z,95.50
2023-05-10T08:28:42.799Z,95.94
2023-05-10T08:31:09.332Z,95.78
2023-05-10T08:33:35.769Z,93.58
2023-05-10T08:36:02.314Z,93.65
2023-05-10T08:38:28.904Z,93.14
2023-05-10T08:40:57.909Z,93.01
2023-05-10T08:43:27.925Z,92.47
2023-05-10T08:45:56.217Z,90.17
2023-05-10T08:48:24.804Z,86.17
2023-05-10T08:50:55.171Z,88.90
2023-05-10T08:53:24.998Z,88.44
2023-05-10T08:55:51.710Z,89.61
2023-05-10T08:58:20.398Z,86.55
2023-05-10T09:00:49.544Z,85.56
2023-05-10T09:03:16.600Z,86.60
2023-05-10T09:05:43.266Z,87.07
2023-05-10T09:08:09.980Z,88.43
2023-05-10T09:10:36.752Z,87.91
2023-05-10T09:13:04.064Z,89.79
2023-05-10T09:15:31.743Z,90.83
2023-05-10T09:18:00.283Z,93.09
2023-05-10T09:20:27.938Z,91.58
2023-05-10T09:22:54.458Z,93.39
2023-05-10T09:25:21.075Z,93.33
2023-05-10T09:27:48.697Z,96.16
2023-05-10T09:30:25.854Z,96.59
2023-05-10T09:32:53.053Z,96.40
2023-05-10T09:35:27.072Z,97.51
2023-05-10T09:37:57.456Z,93.53
2023-05-10T09:40:25.884Z,92.11
2023-05-10T09:43:00.484Z,91.08
2023-05-10T09:45:29.343Z,87.51
2023-05-10T09:47:56.813Z,90.01
2023-05-10T09:50:24.466Z,87.36
2023-05-10T09:53:02.269Z,82.01
2023-05-10T09:55:42.146Z,84.84
2023-05-10T09:58:11.478Z,85.63
2023-05-10T10:00:41.010Z,85.19
2023-05-10T10:03:13.611Z,86.71
2023-05-10T10:05:41.661Z,89.93
2023-05-10T10:08:08.102Z,94.18
2023-05-10T10:10:35.397Z,92.36
2023-05-10T10:13:02.803Z,94.05
2023-05-10T10:15:29.308Z,90.76
2023-05-10T10:17:55.853Z,94.27
2023-05-10T10:20:23.579Z,91.43
2023-05-10T10:22:50.502Z,89.37
2023-05-10T10:25:19.668Z,90.90
2023-05-10T10:28:04.496Z,89.69
2023-05-10T10:30:46.875Z,90.43
2023-05-10T10:33:27.874Z,87.73
2023-05-10T10:35:56.377Z,84.22
2023-05-10T10:38:23.703Z,83.28
2023-05-10T10:41:03.340Z,84.28
2023-05-10T10:43:30.443Z,82.29
2023-05-10T10:46:19.217Z,83.82
2023-05-10T10:49:09.859Z,83.02
2023-05-10T10:51:40.461Z,79.41
2023-05-10T10:54:11.632Z,78.52
2023-05-10T10:56:38.437Z,75.03
2023-05-10T10:59:05.056Z,77.98
2023-05-10T11:01:38.127Z,78.03
2023-05-10T11:04:04.660Z,75.33
2023-05-10T11:06:36.337Z,74.71
2023-05-10T11:09:12.353Z,75.00
2023-05-10T11:11:59.350Z,71.17
2023-05-10T11:14:26.236Z,70.94
2023-05-10T11:16:52.777Z,71.95
2023-05-10T11:19:20.184Z,71.55
2023-05-10T11:22:06.836Z,72.36
2023-05-10T11:24:34.740Z,77.64
2023-05-10T11:27:01.820Z,79.77
2023-05-10T11:29:28.384Z,79.97
2023-05-10T11:31:58.903Z,78.69
2023-05-10T11:34:31.236Z,79.29
2023-05-10T11:36:58.778Z,78.45
2023-05-10T11:39:29.548Z,77.81
2023-05-10T11:41:56.771Z,76.21
2023-05-10T11:44:23.507Z,75.54
2023-05-10T11:46:50.580Z,77.46
2023-05-10T11:49:17.159Z,74.31
2023-05-10T11:51:44.540Z,72.56
2023-05-10T11:54:12.220Z,69.61
2023-05-10T11:56:42.028Z,71.44
2023-05-10T11:59:09.188Z,69.43
2023-05-10T12:01:37.033Z,65.15
2023-05-10T12:04:03.840Z,66.07
2023-05-10T12:06:33.593Z,65.33
2023-05-10T12:09:00.244Z,66.45
2023-05-10T12:11:28.703Z,66.99
2023-05-10T12:13:57.075Z,69.65
2023-05-10T12:16:26.118Z,70.12
2023-05-10T12:18:57.150Z,71.06
2023-05-10T12:21:24.005Z,70.56
2023-05-10T12:23:55.331Z,68.92
2023-05-10T12:26:27.285Z,69.55
2023-05-10T12:28:54.923Z,69.17
2023-05-10T12:31:21.663Z,70.32
2023-05-10T12:33:50.135Z,70.14
2023-05-10T12:36:17.445Z,69.60
2023-05-10T12:38:48.620Z,70.75
2023-05-10T12:41:17.505Z,69.87
2023-05-10T12:43:44.522Z,67.81
2023-05-10T12:46:15.613Z,66.05
2023-05-10T12:48:43.429Z,67.84
2023-05-10T12:51:12.632Z,69.04
2023-05-10T12:53:41.820Z,67.72
2023-05-10T12:56:10.824Z,68.03
2023-05-10T12:58:37.239Z,68.83
2023-05-10T13:01:04.194Z,67.43
2023-05-10T13:03:31.376Z,66.91
2023-05-10T13:05:57.915Z,65.19
2023-05-10T13:08:24.718Z,63.40
2023-05-10T13:10:51.199Z,65.04
2023-05-10T13:13:18.655Z,63.27
2023-05-10T13:15:45.080Z,63.69
2023-05-10T13:18:11.641Z,65.82
2023-05-10T13:20:38.320Z,66.11
2023-05-10T13:23:04.831Z,65.04
2023-05-10T13:25:31.720Z,65.04
2023-05-10T13:27:58.121Z,67.02
2023-05-10T13:30:24.902Z,67.52
2023-05-10T13:32:51.533Z,66.94
2023-05-10T13:35:18.018Z,65.12
2023-05-10T13:37:44.521Z,60.65
2023-05-10T13:40:11.121Z,61.08
2023-05-10T13:42:38.423Z,61.13
2023-05-10T13:45:05.439Z,60.21
2023-05-10T13:47:31.986Z,60.89
2023-05-10T13:49:58.679Z,57.46
2023-05-10T13:52:25.390Z,61.62
2023-05-10T13:54:55.682Z,59.42
2023-05-10T13:57:22.817Z,60.21
2023-05-10T13:59:49.334Z,62.52
2023-05-10T14:02:15.810Z,63.52
2023-05-10T14:04:42.280Z,62.49
2023-05-10T14:07:08.868Z,61.90
2023-05-10T14:09:35.330Z,64.31
2023-05-10T14:12:01.893Z,63.03
2023-05-10T14:14:30.060Z,63.74
2023-05-10T14:16:56.872Z,65.02
2023-05-10T14:19:23.491Z,64.67
2023-05-10T14:21:49.923Z,64.69
2023-05-10T14:24:16.384Z,63.92
2023-05-10T14:26:42.852Z,65.16
2023-05-10T14:29:10.764Z,65.75
2023-05-10T14:31:38.971Z,67.06
2023-05-10T14:34:06.571Z,65.71
2023-05-10T14:36:33.235Z,63.40
2023-05-10T14:38:59.678Z,65.79
2023-05-10T14:41:26.217Z,63.21
2023-05-10T14:43:52.743Z,65.93
2023-05-10T14:46:19.319Z,63.74
2023-05-10T14:48:45.777Z,63.49
2023-05-10T14:51:12.297Z,63.08
2023-05-10T14:53:38.700Z,60.68
2023-05-10T14:56:05.405Z,65.22
2023-05-10T14:58:33.985Z,64.52
2023-05-10T15:01:01.179Z,63.39
2023-05-10T15:03:28.168Z,62.70
2023-05-10T15:05:56.916Z,62.31
2023-05-10T15:08:23.602Z,61.54
2023-05-10T15:10:50.066Z,60.32
2023-05-10T15:13:16.529Z,57.65
2023-05-10T15:15:43.188Z,57.06
2023-05-10T15:18:10.396Z,61.33
2023-05-10T15:20:36.901Z,60.74
2023-05-10T15:23:03.934Z,59.61
2023-05-10T15:25:30.434Z,58.57
2023-05-10T15:27:56.884Z,57.57
2023-05-10T15:30:23.385Z,56.25
2023-05-10T15:32:50.011Z,58.21
2023-05-10T15:35:17.877Z,57.90
2023-05-10T15:37:45.256Z,58.22
2023-05-10T15:40:12.117Z,59.11
2023-05-10T15:42:38.559Z,61.14
2023-05-10T15:45:05.714Z,57.66
2023-05-10T15:47:32.292Z,58.03
2023-05-10T15:49:58.741Z,55.79
2023-05-10T15:52:25.245Z,58.35
2023-05-10T15:54:51.750Z,56.18
2023-05-10T15:57:18.219Z,56.87
2023-05-10T15:59:45.319Z,57.40
2023-05-10T16:02:12.115Z,57.85
2023-05-10T16:04:39.110Z,59.52
2023-05-10T16:07:05.645Z,61.18
2023-05-10T16:09:32.115Z,60.78
2023-05-10T16:11:58.767Z,61.44
2023-05-10T16:14:25.269Z,62.16
2023-05-10T16:16:52.174Z,64.69
2023-05-10T16:19:18.981Z,62.70
2023-05-10T16:21:45.633Z,64.63
2023-05-10T16:24:12.246Z,65.80
2023-05-10T16:26:41.167Z,65.85
2023-05-10T16:29:10.946Z,66.50
2023-05-10T16:31:37.434Z,66.12
2023-05-10T16:34:03.975Z,67.59
2023-05-10T16:36:31.416Z,68.67
2023-05-10T16:38:58.274Z,65.91
2023-05-10T16:41:24.794Z,65.06
2023-05-10T16:43:51.229Z,64.72
2023-05-10T16:46:17.906Z,65.44
2023-05-10T16:48:44.361Z,66.73
2023-05-10T16:51:10.918Z,67.09
2023-05-10T16:53:37.731Z,67.23
2023-05-10T16:56:04.290Z,67.68
2023-05-10T16:58:30.785Z,69.26
2023-05-10T17:00:57.242Z,71.43
2023-05-10T17:03:23.764Z,71.26
2023-05-10T17:05:50.433Z,72.29
2023-05-10T17:08:17.173Z,71.72
2023-05-10T17:10:43.617Z,71.96
2023-05-10T17:13:10.856Z,70.79
2023-05-10T17:15:38.519Z,71.21
2023-05-10T17:18:05.432Z,72.29
2023-05-10T17:20:32.231Z,71.28
2023-05-10T17:22:58.865Z,72.45
2023-05-10T17:25:25.402Z,73.51
2023-05-10T17:27:51.906Z,73.42
2023-05-10T17:30:22.537Z,73.77
2023-05-10T17:32:49.041Z,72.50
2023-05-10T17:35:15.948Z,73.44
2023-05-10T17:37:43.975Z,72.62
2023-05-10T17:40:11.339Z,74.65
2023-05-10T17:42:37.799Z,75.38
2023-05-10T17:45:04.569Z,72.76
2023-05-10T17:47:31.067Z,74.32
2023-05-10T17:49:57.683Z,73.99
2023-05-10T17:52:24.126Z,74.25
2023-05-10T17:54:51.167Z,74.35
2023-05-10T17:57:18.469Z,75.82
2023-05-10T17:59:44.928Z,76.47
2023-05-10T18:02:11.406Z,76.47
2023-05-10T18:04:40.108Z,77.10
2023-05-10T18:07:07.838Z,75.43
2023-05-10T18:09:34.403Z,74.79
2023-05-10T18:12:03.930Z,73.53
2023-05-10T18:14:39.858Z,71.91
2023-05-10T18:17:07.039Z,71.89
2023-05-10T18:19:33.951Z,73.32
2023-05-10T18:22:00.453Z,74.31
2023-05-10T18:24:40.215Z,75.14
2023-05-10T18:27:11.289Z,77.09
2023-05-10T18:29:37.818Z,78.20
2023-05-10T18:32:04.600Z,78.74
2023-05-10T18:34:31.044Z,79.50
2023-05-10T18:36:57.672Z,78.79
2023-05-10T18:39:24.303Z,79.86
2023-05-10T18:41:51.010Z,81.28
2023-05-10T18:44:18.735Z,81.12
2023-05-10T18:46:45.260Z,83.82
2023-05-10T18:49:11.856Z,83.97
2023-05-10T18:51:38.290Z,83.76
2023-05-10T18:54:04.774Z,84.67
2023-05-10T18:56:31.395Z,85.18
2023-05-10T18:58:57.906Z,90.00
2023-05-10T19:01:24.463Z,93.79
2023-05-10T19:03:50.961Z,93.11
2023-05-10T19:06:17.378Z,96.82
2023-05-10T19:08:43.846Z,97.66
2023-05-10T19:11:10.451Z,94.87
2023-05-10T19:13:37.062Z,91.95
2023-05-10T19:16:16.873Z,97.38
2023-05-10T19:18:44.478Z,97.00
2023-05-10T19:21:11.366Z,96.21
2023-05-10T19:23:40.324Z,98.37
2023-05-10T19:26:09.506Z,100.00
2023-05-10T19:28:36.039Z,100.00
2023-05-10T19:31:02.507Z,100.00
2023-05-10T19:33:29.426Z,100.00
2023-05-10T19:35:56.201Z,100.00
2023-05-10T19:38:23.717Z,100.00
2023-05-10T19:40:51.028Z,100.00
2023-05-10T19:43:17.692Z,100.00
2023-05-10T19:45:44.340Z,100.00
2023-05-10T19:48:11.017Z,100.00
2023-05-10T19:50:38.256Z,100.00
2023-05-10T19:53:04.801Z,99.49
2023-05-10T19:55:32.182Z,99.17
2023-05-10T19:58:00.667Z,100.00
2023-05-10T20:00:27.613Z,100.00
2023-05-10T20:02:54.413Z,100.00
2023-05-10T20:05:21.320Z,100.00
2023-05-10T20:07:47.995Z,98.71
2023-05-10T20:10:15.408Z,95.24
2023-05-10T20:12:41.835Z,93.18
2023-05-10T20:15:08.615Z,91.91
2023-05-10T20:17:35.650Z,92.27
2023-05-10T20:20:02.177Z,91.22
2023-05-10T20:22:28.563Z,91.81
2023-05-10T20:24:56.211Z,91.71
2023-05-10T20:27:23.365Z,91.04
2023-05-10T20:29:49.788Z,91.06
2023-05-10T20:32:16.331Z,91.43
2023-05-10T20:34:42.734Z,90.62
2023-05-10T20:37:09.353Z,90.84
2023-05-10T20:39:35.871Z,92.75
2023-05-10T20:42:02.361Z,94.63
2023-05-10T20:44:28.795Z,92.21
2023-05-10T20:46:55.419Z,95.59
2023-05-10T20:49:21.875Z,100.00
2023-05-10T20:51:48.438Z,100.00
2023-05-10T20:54:14.890Z,100.00
2023-05-10T20:56:41.369Z,98.13
2023-05-10T20:59:07.794Z,98.73
2023-05-10T21:01:34.241Z,97.84
2023-05-10T21:04:00.675Z,96.89
2023-05-10T21:06:27.183Z,96.26
2023-05-10T21:08:53.644Z,93.59
2023-05-10T21:11:20.116Z,92.83
2023-05-10T21:13:46.681Z,93.22
2023-05-10T21:16:13.134Z,92.15
2023-05-10T21:18:39.637Z,95.13
2023-05-10T21:21:06.150Z,100.00
2023-05-10T21:23:34.458Z,99.86
2023-05-10T21:26:03.424Z,99.62
2023-05-10T21:28:29.927Z,97.91
2023-05-10T21:30:56.736Z,96.15
2023-05-10T21:33:23.781Z,94.81
2023-05-10T21:35:50.560Z,93.72
2023-05-10T21:38:17.125Z,92.61
2023-05-10T21:40:43.614Z,92.82
2023-05-10T21:43:11.169Z,93.21
2023-05-10T21:45:38.056Z,93.55
2023-05-10T21:48:04.611Z,93.95
2023-05-10T21:50:31.153Z,94.27
2023-05-10T21:52:57.795Z,94.49
2023-05-10T21:55:24.361Z,95.71
2023-05-10T21:57:51.240Z,98.06
2023-05-10T22:00:19.260Z,100.00
2023-05-10T22:02:46.544Z,100.00
2023-05-10T22:05:13.542Z,99.28
2023-05-10T22:07:40.049Z,97.77
2023-05-10T22:10:08.368Z,97.70
2023-05-10T22:12:34.811Z,98.44
2023-05-10T22:15:10.326Z,98.52
2023-05-10T22:17:39.327Z,99.05
2023-05-10T22:20:09.651Z,100.00
2023-05-10T22:22:36.738Z,100.00
2023-05-10T22:25:04.848Z,100.00
2023-05-10T22:27:31.318Z,100.00
2023-05-10T22:29:57.767Z,99.48
2023-05-10T22:32:24.315Z,99.45
2023-05-10T22:34:50.740Z,100.00
2023-05-10T22:37:17.899Z,100.00
2023-05-10T22:39:48.722Z,100.00
2023-05-10T22:42:16.277Z,100.00
2023-05-10T22:44:44.240Z,100.00
2023-05-10T22:47:10.896Z,100.00
2023-05-10T22:49:37.407Z,100.00
2023-05-10T22:52:03.959Z,100.00
2023-05-10T22:54:30.541Z,100.00
2023-05-10T22:56:57.109Z,100.00
2023-05-10T22:59:23.725Z,100.00
2023-05-10T23:01:50.675Z,100.00
2023-05-10T23:04:17.299Z,100.00
2023-05-10T23:06:43.829Z,100.00
2023-05-10T23:09:10.380Z,100.00
2023-05-10T23:11:36.879Z,100.00
2023-05-10T23:14:03.498Z,100.00
2023-05-10T23:16:30.498Z,100.00
2023-05-10T23:18:57.103Z,100.00
2023-05-10T23:21:25.266Z,100.00
2023-05-10T23:23:52.415Z,100.00
2023-05-10T23:26:18.982Z,100.00
2023-05-10T23:28:45.496Z,100.00
2023-05-10T23:31:11.989Z,100.00
2023-05-10T23:33:38.649Z,100.00
2023-05-10T23:36:05.381Z,100.00
2023-05-10T23:38:31.916Z,100.00
2023-05-10T23:40:58.446Z,100.00
2023-05-10T23:43:25.428Z,100.00
2023-05-10T23:45:56.497Z,100.00
2023-05-10T23:48:23.378Z,100.00
2023-05-10T23:50:50.046Z,100.00
2023-05-10T23:53:16.663Z,100.00
2023-05-10T23:55:43.276Z,100.00
2023-05-10T23:58:09.844Z,100.00
